sensor_id;sensor_type;location;lat;lon;timestamp;P1;durP1;ratioP1;P2;durP2;ratioP2
583;SDS011;27024;54.068;12.116;2022-07-29T00:00:03;7.45;;;3.58;;
583;SDS011;27024;54.068;12.116;2022-07-29T00:02:31;7.68;;;3.30;;
583;SDS011;27024;54.068;12.116;2022-07-29T00:04:58;7.78;;;3.35;;
583;SDS011;27024;54.068;12.116;2022-07-29T00:07:25;6.60;;;3.13;;
583;SDS011;27024;54.068;12.116;2022-07-29T00:09:52;9.32;;;3.25;;
583;SDS011;27024;54.068;12.116;2022-07-29T00:12:20;7.28;;;3.30;;
583;SDS011;27024;54.068;12.116;2022-07-29T00:14:55;9.52;;;3.55;;
583;SDS011;27024;54.068;12.116;2022-07-29T00:17:23;9.13;;;3.28;;
583;SDS011;27024;54.068;12.116;2022-07-29T00:19:50;9.90;;;3.35;;
583;SDS011;27024;54.068;12.116;2022-07-29T00:22:18;4.68;;;3.00;;
583;SDS011;27024;54.068;12.116;2022-07-29T00:24:47;7.47;;;3.05;;
583;SDS011;27024;54.068;12.116;2022-07-29T00:27:15;6.63;;;3.15;;
583;SDS011;27024;54.068;12.116;2022-07-29T00:29:43;9.27;;;3.30;;
583;SDS011;27024;54.068;12.116;2022-07-29T00:32:09;8.80;;;3.42;;
583;SDS011;27024;54.068;12.116;2022-07-29T00:34:36;7.60;;;3.40;;
583;SDS011;27024;54.068;12.116;2022-07-29T00:37:21;8.90;;;3.30;;
583;SDS011;27024;54.068;12.116;2022-07-29T00:39:48;8.32;;;3.28;;
583;SDS011;27024;54.068;12.116;2022-07-29T00:42:15;10.00;;;3.22;;
583;SDS011;27024;54.068;12.116;2022-07-29T00:44:43;5.20;;;2.63;;
583;SDS011;27024;54.068;12.116;2022-07-29T00:47:10;7.97;;;3.20;;
583;SDS011;27024;54.068;12.116;2022-07-29T00:49:41;9.27;;;3.25;;
583;SDS011;27024;54.068;12.116;2022-07-29T00:52:09;7.20;;;3.17;;
583;SDS011;27024;54.068;12.116;2022-07-29T00:54:37;8.45;;;2.90;;
583;SDS011;27024;54.068;12.116;2022-07-29T00:57:10;9.25;;;3.35;;
583;SDS011;27024;54.068;12.116;2022-07-29T00:59:37;5.75;;;3.25;;
583;SDS011;27024;54.068;12.116;2022-07-29T01:02:04;8.07;;;3.35;;
583;SDS011;27024;54.068;12.116;2022-07-29T01:04:32;9.93;;;3.30;;
583;SDS011;27024;54.068;12.116;2022-07-29T01:07:00;7.95;;;3.38;;
583;SDS011;27024;54.068;12.116;2022-07-29T01:09:28;7.03;;;3.28;;
583;SDS011;27024;54.068;12.116;2022-07-29T01:12:16;9.20;;;3.17;;
583;SDS011;27024;54.068;12.116;2022-07-29T01:14:45;8.27;;;3.05;;
583;SDS011;27024;54.068;12.116;2022-07-29T01:17:36;9.75;;;3.67;;
583;SDS011;27024;54.068;12.116;2022-07-29T01:26:02;7.53;;;3.03;;
583;SDS011;27024;54.068;12.116;2022-07-29T01:28:52;8.60;;;3.22;;
583;SDS011;27024;54.068;12.116;2022-07-29T01:34:27;8.02;;;3.00;;
583;SDS011;27024;54.068;12.116;2022-07-29T01:37:04;6.35;;;2.83;;
583;SDS011;27024;54.068;12.116;2022-07-29T01:39:36;6.70;;;3.10;;
583;SDS011;27024;54.068;12.116;2022-07-29T01:44:43;7.20;;;3.33;;
583;SDS011;27024;54.068;12.116;2022-07-29T01:47:17;5.97;;;3.00;;
583;SDS011;27024;54.068;12.116;2022-07-29T01:49:49;8.18;;;2.80;;
583;SDS011;27024;54.068;12.116;2022-07-29T01:55:15;5.20;;;2.67;;
583;SDS011;27024;54.068;12.116;2022-07-29T01:57:45;8.18;;;3.53;;
583;SDS011;27024;54.068;12.116;2022-07-29T02:00:14;6.93;;;3.05;;
583;SDS011;27024;54.068;12.116;2022-07-29T02:02:43;12.48;;;2.90;;
583;SDS011;27024;54.068;12.116;2022-07-29T02:05:12;7.50;;;2.95;;
583;SDS011;27024;54.068;12.116;2022-07-29T02:07:42;6.50;;;2.63;;
583;SDS011;27024;54.068;12.116;2022-07-29T02:10:10;7.63;;;3.05;;
583;SDS011;27024;54.068;12.116;2022-07-29T02:12:39;10.07;;;2.78;;
583;SDS011;27024;54.068;12.116;2022-07-29T02:15:15;7.32;;;2.90;;
583;SDS011;27024;54.068;12.116;2022-07-29T02:17:44;6.10;;;2.70;;
583;SDS011;27024;54.068;12.116;2022-07-29T02:20:15;6.90;;;2.60;;
583;SDS011;27024;54.068;12.116;2022-07-29T02:22:42;6.70;;;2.58;;
583;SDS011;27024;54.068;12.116;2022-07-29T02:25:11;8.57;;;2.85;;
583;SDS011;27024;54.068;12.116;2022-07-29T02:27:40;8.80;;;2.88;;
583;SDS011;27024;54.068;12.116;2022-07-29T02:30:08;9.77;;;2.83;;
583;SDS011;27024;54.068;12.116;2022-07-29T02:32:37;7.10;;;2.88;;
583;SDS011;27024;54.068;12.116;2022-07-29T02:35:06;10.48;;;3.42;;
583;SDS011;27024;54.068;12.116;2022-07-29T02:37:36;6.13;;;2.75;;
583;SDS011;27024;54.068;12.116;2022-07-29T02:40:04;6.75;;;2.40;;
583;SDS011;27024;54.068;12.116;2022-07-29T02:42:35;8.90;;;2.78;;
583;SDS011;27024;54.068;12.116;2022-07-29T02:45:04;7.78;;;2.53;;
583;SDS011;27024;54.068;12.116;2022-07-29T02:47:36;6.80;;;2.67;;
583;SDS011;27024;54.068;12.116;2022-07-29T02:50:15;6.15;;;2.40;;
583;SDS011;27024;54.068;12.116;2022-07-29T02:55:33;9.82;;;2.88;;
583;SDS011;27024;54.068;12.116;2022-07-29T03:00:36;7.35;;;2.42;;
583;SDS011;27024;54.068;12.116;2022-07-29T03:03:07;4.13;;;2.22;;
583;SDS011;27024;54.068;12.116;2022-07-29T03:05:37;5.10;;;2.45;;
583;SDS011;27024;54.068;12.116;2022-07-29T03:08:05;6.07;;;2.40;;
583;SDS011;27024;54.068;12.116;2022-07-29T03:10:35;7.28;;;2.70;;
583;SDS011;27024;54.068;12.116;2022-07-29T03:13:05;5.63;;;3.13;;
583;SDS011;27024;54.068;12.116;2022-07-29T03:15:34;8.20;;;2.80;;
583;SDS011;27024;54.068;12.116;2022-07-29T03:18:02;6.47;;;3.22;;
583;SDS011;27024;54.068;12.116;2022-07-29T03:20:30;5.70;;;2.30;;
583;SDS011;27024;54.068;12.116;2022-07-29T03:22:57;8.93;;;2.70;;
583;SDS011;27024;54.068;12.116;2022-07-29T03:25:23;6.63;;;2.55;;
583;SDS011;27024;54.068;12.116;2022-07-29T03:27:51;7.10;;;2.30;;
583;SDS011;27024;54.068;12.116;2022-07-29T03:30:18;7.20;;;2.47;;
583;SDS011;27024;54.068;12.116;2022-07-29T03:32:48;5.40;;;2.38;;
583;SDS011;27024;54.068;12.116;2022-07-29T03:35:18;3.97;;;2.17;;
583;SDS011;27024;54.068;12.116;2022-07-29T03:37:46;5.05;;;2.63;;
583;SDS011;27024;54.068;12.116;2022-07-29T03:40:17;6.80;;;2.60;;
583;SDS011;27024;54.068;12.116;2022-07-29T03:42:48;4.45;;;2.17;;
583;SDS011;27024;54.068;12.116;2022-07-29T03:45:17;4.85;;;2.03;;
583;SDS011;27024;54.068;12.116;2022-07-29T03:47:47;5.30;;;2.40;;
583;SDS011;27024;54.068;12.116;2022-07-29T03:50:22;5.97;;;2.28;;
583;SDS011;27024;54.068;12.116;2022-07-29T03:52:49;7.63;;;2.60;;
583;SDS011;27024;54.068;12.116;2022-07-29T03:55:16;5.05;;;2.50;;
583;SDS011;27024;54.068;12.116;2022-07-29T03:57:43;8.77;;;2.30;;
583;SDS011;27024;54.068;12.116;2022-07-29T04:00:11;6.85;;;2.55;;
583;SDS011;27024;54.068;12.116;2022-07-29T04:02:38;5.45;;;2.13;;
583;SDS011;27024;54.068;12.116;2022-07-29T04:05:11;9.30;;;2.03;;
583;SDS011;27024;54.068;12.116;2022-07-29T04:07:39;8.10;;;1.83;;
583;SDS011;27024;54.068;12.116;2022-07-29T04:10:07;4.40;;;1.90;;
583;SDS011;27024;54.068;12.116;2022-07-29T04:12:35;6.70;;;1.95;;
583;SDS011;27024;54.068;12.116;2022-07-29T04:15:03;6.95;;;2.05;;
583;SDS011;27024;54.068;12.116;2022-07-29T04:17:30;5.30;;;1.83;;
583;SDS011;27024;54.068;12.116;2022-07-29T04:19:57;5.55;;;1.98;;
583;SDS011;27024;54.068;12.116;2022-07-29T04:22:24;5.05;;;2.00;;
583;SDS011;27024;54.068;12.116;2022-07-29T04:24:52;6.25;;;1.90;;
583;SDS011;27024;54.068;12.116;2022-07-29T04:27:19;7.15;;;1.90;;
583;SDS011;27024;54.068;12.116;2022-07-29T04:29:46;9.15;;;1.90;;
583;SDS011;27024;54.068;12.116;2022-07-29T04:32:22;5.28;;;2.00;;
583;SDS011;27024;54.068;12.116;2022-07-29T04:34:49;5.88;;;1.80;;
583;SDS011;27024;54.068;12.116;2022-07-29T04:37:16;6.60;;;1.65;;
583;SDS011;27024;54.068;12.116;2022-07-29T04:39:42;3.38;;;1.58;;
583;SDS011;27024;54.068;12.116;2022-07-29T04:42:09;6.65;;;1.65;;
583;SDS011;27024;54.068;12.116;2022-07-29T04:44:36;6.47;;;1.70;;
583;SDS011;27024;54.068;12.116;2022-07-29T04:47:07;5.82;;;1.75;;
583;SDS011;27024;54.068;12.116;2022-07-29T04:49:37;6.88;;;1.95;;
583;SDS011;27024;54.068;12.116;2022-07-29T04:52:04;6.13;;;2.10;;
583;SDS011;27024;54.068;12.116;2022-07-29T04:54:32;7.95;;;2.00;;
583;SDS011;27024;54.068;12.116;2022-07-29T04:56:59;7.50;;;1.95;;
583;SDS011;27024;54.068;12.116;2022-07-29T04:59:26;7.30;;;1.65;;
583;SDS011;27024;54.068;12.116;2022-07-29T05:01:53;7.60;;;2.28;;
583;SDS011;27024;54.068;12.116;2022-07-29T05:04:20;6.50;;;1.80;;
583;SDS011;27024;54.068;12.116;2022-07-29T05:06:47;9.18;;;1.85;;
583;SDS011;27024;54.068;12.116;2022-07-29T05:09:14;6.13;;;1.90;;
583;SDS011;27024;54.068;12.116;2022-07-29T05:11:41;8.43;;;1.80;;
583;SDS011;27024;54.068;12.116;2022-07-29T05:14:07;6.32;;;1.40;;
583;SDS011;27024;54.068;12.116;2022-07-29T05:16:34;9.70;;;1.60;;
583;SDS011;27024;54.068;12.116;2022-07-29T05:19:01;4.88;;;1.45;;
583;SDS011;27024;54.068;12.116;2022-07-29T05:21:28;6.47;;;1.63;;
583;SDS011;27024;54.068;12.116;2022-07-29T05:23:55;4.03;;;1.60;;
583;SDS011;27024;54.068;12.116;2022-07-29T05:26:22;5.97;;;1.55;;
583;SDS011;27024;54.068;12.116;2022-07-29T05:28:48;4.43;;;1.60;;
583;SDS011;27024;54.068;12.116;2022-07-29T05:31:15;5.28;;;1.90;;
583;SDS011;27024;54.068;12.116;2022-07-29T05:33:42;3.00;;;1.23;;
583;SDS011;27024;54.068;12.116;2022-07-29T05:36:09;4.68;;;1.45;;
583;SDS011;27024;54.068;12.116;2022-07-29T05:38:36;12.02;;;1.65;;
583;SDS011;27024;54.068;12.116;2022-07-29T05:41:04;7.38;;;1.63;;
583;SDS011;27024;54.068;12.116;2022-07-29T05:43:31;5.22;;;1.42;;
583;SDS011;27024;54.068;12.116;2022-07-29T05:45:58;3.88;;;1.10;;
583;SDS011;27024;54.068;12.116;2022-07-29T05:48:25;5.63;;;1.20;;
583;SDS011;27024;54.068;12.116;2022-07-29T05:50:52;3.60;;;1.20;;
583;SDS011;27024;54.068;12.116;2022-07-29T05:53:19;5.10;;;1.30;;
583;SDS011;27024;54.068;12.116;2022-07-29T05:55:47;7.35;;;1.50;;
583;SDS011;27024;54.068;12.116;2022-07-29T05:58:14;5.10;;;1.23;;
583;SDS011;27024;54.068;12.116;2022-07-29T06:00:41;4.15;;;0.95;;
583;SDS011;27024;54.068;12.116;2022-07-29T06:03:08;6.15;;;1.30;;
583;SDS011;27024;54.068;12.116;2022-07-29T06:05:34;3.83;;;1.38;;
583;SDS011;27024;54.068;12.116;2022-07-29T06:08:01;2.85;;;1.00;;
583;SDS011;27024;54.068;12.116;2022-07-29T06:10:28;3.72;;;1.15;;
583;SDS011;27024;54.068;12.116;2022-07-29T06:12:55;3.97;;;1.30;;
583;SDS011;27024;54.068;12.116;2022-07-29T06:15:22;5.50;;;1.42;;
583;SDS011;27024;54.068;12.116;2022-07-29T06:17:49;4.72;;;1.38;;
583;SDS011;27024;54.068;12.116;2022-07-29T06:20:27;3.80;;;0.90;;
583;SDS011;27024;54.068;12.116;2022-07-29T06:22:56;4.50;;;1.33;;
583;SDS011;27024;54.068;12.116;2022-07-29T06:25:24;4.18;;;1.30;;
583;SDS011;27024;54.068;12.116;2022-07-29T06:27:50;5.00;;;1.38;;
583;SDS011;27024;54.068;12.116;2022-07-29T06:30:18;4.68;;;1.20;;
583;SDS011;27024;54.068;12.116;2022-07-29T06:32:45;6.15;;;1.17;;
583;SDS011;27024;54.068;12.116;2022-07-29T06:35:12;3.53;;;1.27;;
583;SDS011;27024;54.068;12.116;2022-07-29T06:37:59;3.25;;;1.35;;
583;SDS011;27024;54.068;12.116;2022-07-29T06:40:25;4.80;;;0.93;;
583;SDS011;27024;54.068;12.116;2022-07-29T06:43:11;6.20;;;1.10;;
583;SDS011;27024;54.068;12.116;2022-07-29T06:45:38;3.88;;;1.10;;
583;SDS011;27024;54.068;12.116;2022-07-29T06:48:08;6.53;;;1.27;;
583;SDS011;27024;54.068;12.116;2022-07-29T06:50:36;4.63;;;1.20;;
583;SDS011;27024;54.068;12.116;2022-07-29T06:53:03;5.90;;;1.30;;
583;SDS011;27024;54.068;12.116;2022-07-29T06:55:30;4.78;;;1.08;;
583;SDS011;27024;54.068;12.116;2022-07-29T06:57:57;5.55;;;1.23;;
583;SDS011;27024;54.068;12.116;2022-07-29T07:00:23;5.55;;;1.02;;
583;SDS011;27024;54.068;12.116;2022-07-29T07:02:50;7.03;;;1.48;;
583;SDS011;27024;54.068;12.116;2022-07-29T07:05:17;5.00;;;1.20;;
583;SDS011;27024;54.068;12.116;2022-07-29T07:07:44;4.40;;;1.10;;
583;SDS011;27024;54.068;12.116;2022-07-29T07:10:11;3.30;;;1.13;;
583;SDS011;27024;54.068;12.116;2022-07-29T07:12:38;3.33;;;1.27;;
583;SDS011;27024;54.068;12.116;2022-07-29T07:15:05;5.40;;;1.45;;
583;SDS011;27024;54.068;12.116;2022-07-29T07:17:32;3.85;;;1.35;;
583;SDS011;27024;54.068;12.116;2022-07-29T07:19:59;3.67;;;1.15;;
583;SDS011;27024;54.068;12.116;2022-07-29T07:22:25;5.03;;;1.30;;
583;SDS011;27024;54.068;12.116;2022-07-29T07:24:52;2.63;;;0.93;;
583;SDS011;27024;54.068;12.116;2022-07-29T07:27:19;5.03;;;1.15;;
583;SDS011;27024;54.068;12.116;2022-07-29T07:29:46;4.75;;;1.10;;
583;SDS011;27024;54.068;12.116;2022-07-29T07:32:12;6.63;;;1.40;;
583;SDS011;27024;54.068;12.116;2022-07-29T07:34:43;7.15;;;1.02;;
583;SDS011;27024;54.068;12.116;2022-07-29T07:37:09;2.90;;;1.00;;
583;SDS011;27024;54.068;12.116;2022-07-29T07:39:37;3.20;;;1.10;;
583;SDS011;27024;54.068;12.116;2022-07-29T07:42:04;2.75;;;1.08;;
583;SDS011;27024;54.068;12.116;2022-07-29T07:44:31;4.75;;;1.25;;
583;SDS011;27024;54.068;12.116;2022-07-29T07:47:12;3.97;;;1.10;;
583;SDS011;27024;54.068;12.116;2022-07-29T07:49:38;4.20;;;1.08;;
583;SDS011;27024;54.068;12.116;2022-07-29T07:52:07;4.70;;;1.10;;
583;SDS011;27024;54.068;12.116;2022-07-29T07:54:33;4.60;;;1.02;;
583;SDS011;27024;54.068;12.116;2022-07-29T07:57:00;2.60;;;0.95;;
583;SDS011;27024;54.068;12.116;2022-07-29T07:59:27;2.88;;;0.98;;
583;SDS011;27024;54.068;12.116;2022-07-29T08:01:54;4.75;;;1.30;;
583;SDS011;27024;54.068;12.116;2022-07-29T08:04:22;5.03;;;1.00;;
583;SDS011;27024;54.068;12.116;2022-07-29T08:06:54;4.88;;;1.27;;
583;SDS011;27024;54.068;12.116;2022-07-29T08:09:22;5.25;;;1.40;;
583;SDS011;27024;54.068;12.116;2022-07-29T08:11:55;5.40;;;1.40;;
583;SDS011;27024;54.068;12.116;2022-07-29T08:14:23;5.68;;;1.38;;
583;SDS011;27024;54.068;12.116;2022-07-29T08:16:50;7.03;;;1.40;;
583;SDS011;27024;54.068;12.116;2022-07-29T08:19:17;4.78;;;1.23;;
583;SDS011;27024;54.068;12.116;2022-07-29T08:21:44;5.07;;;1.20;;
583;SDS011;27024;54.068;12.116;2022-07-29T08:24:11;4.55;;;1.30;;
583;SDS011;27024;54.068;12.116;2022-07-29T08:26:57;2.42;;;0.95;;
583;SDS011;27024;54.068;12.116;2022-07-29T08:29:23;4.82;;;1.13;;
583;SDS011;27024;54.068;12.116;2022-07-29T08:31:50;3.63;;;1.52;;
583;SDS011;27024;54.068;12.116;2022-07-29T08:34:17;7.60;;;1.33;;
583;SDS011;27024;54.068;12.116;2022-07-29T08:36:53;5.15;;;1.58;;
583;SDS011;27024;54.068;12.116;2022-07-29T08:39:19;3.90;;;1.15;;
583;SDS011;27024;54.068;12.116;2022-07-29T08:41:46;6.53;;;1.67;;
583;SDS011;27024;54.068;12.116;2022-07-29T08:44:23;3.00;;;1.20;;
583;SDS011;27024;54.068;12.116;2022-07-29T08:46:56;3.65;;;1.08;;
583;SDS011;27024;54.068;12.116;2022-07-29T08:49:23;6.32;;;1.23;;
583;SDS011;27024;54.068;12.116;2022-07-29T08:51:50;3.97;;;1.50;;
583;SDS011;27024;54.068;12.116;2022-07-29T08:54:17;2.65;;;1.00;;
583;SDS011;27024;54.068;12.116;2022-07-29T08:56:48;5.60;;;1.20;;
583;SDS011;27024;54.068;12.116;2022-07-29T08:59:17;5.38;;;1.23;;
583;SDS011;27024;54.068;12.116;2022-07-29T09:01:48;4.07;;;1.35;;
583;SDS011;27024;54.068;12.116;2022-07-29T09:04:20;4.70;;;1.38;;
583;SDS011;27024;54.068;12.116;2022-07-29T09:06:49;7.07;;;1.60;;
583;SDS011;27024;54.068;12.116;2022-07-29T09:11:46;3.05;;;1.10;;
583;SDS011;27024;54.068;12.116;2022-07-29T09:14:13;5.47;;;1.08;;
583;SDS011;27024;54.068;12.116;2022-07-29T09:16:50;5.40;;;1.40;;
583;SDS011;27024;54.068;12.116;2022-07-29T09:19:20;4.00;;;1.15;;
583;SDS011;27024;54.068;12.116;2022-07-29T09:21:47;4.15;;;1.50;;
583;SDS011;27024;54.068;12.116;2022-07-29T09:27:24;6.70;;;1.30;;
583;SDS011;27024;54.068;12.116;2022-07-29T09:29:56;5.60;;;1.13;;
583;SDS011;27024;54.068;12.116;2022-07-29T09:32:27;3.58;;;0.95;;
583;SDS011;27024;54.068;12.116;2022-07-29T09:35:13;4.28;;;1.25;;
583;SDS011;27024;54.068;12.116;2022-07-29T09:37:47;3.67;;;1.27;;
583;SDS011;27024;54.068;12.116;2022-07-29T09:40:18;3.75;;;1.10;;
583;SDS011;27024;54.068;12.116;2022-07-29T09:42:47;6.78;;;1.58;;
583;SDS011;27024;54.068;12.116;2022-07-29T09:45:25;9.25;;;1.40;;
583;SDS011;27024;54.068;12.116;2022-07-29T09:47:56;4.28;;;1.23;;
583;SDS011;27024;54.068;12.116;2022-07-29T09:50:37;3.63;;;1.08;;
583;SDS011;27024;54.068;12.116;2022-07-29T09:53:07;5.25;;;1.38;;
583;SDS011;27024;54.068;12.116;2022-07-29T09:55:47;4.22;;;1.20;;
583;SDS011;27024;54.068;12.116;2022-07-29T09:58:18;3.30;;;1.23;;
583;SDS011;27024;54.068;12.116;2022-07-29T10:00:48;3.63;;;1.23;;
583;SDS011;27024;54.068;12.116;2022-07-29T10:03:17;5.43;;;1.10;;
583;SDS011;27024;54.068;12.116;2022-07-29T10:05:45;4.97;;;1.27;;
583;SDS011;27024;54.068;12.116;2022-07-29T10:08:29;4.13;;;1.15;;
583;SDS011;27024;54.068;12.116;2022-07-29T10:11:11;4.65;;;1.48;;
583;SDS011;27024;54.068;12.116;2022-07-29T10:13:40;5.10;;;1.27;;
583;SDS011;27024;54.068;12.116;2022-07-29T10:16:08;4.63;;;1.30;;
583;SDS011;27024;54.068;12.116;2022-07-29T10:18:35;4.25;;;1.48;;
583;SDS011;27024;54.068;12.116;2022-07-29T10:21:05;3.53;;;1.20;;
583;SDS011;27024;54.068;12.116;2022-07-29T10:23:33;5.35;;;0.93;;
583;SDS011;27024;54.068;12.116;2022-07-29T10:26:12;4.13;;;1.00;;
583;SDS011;27024;54.068;12.116;2022-07-29T10:28:40;3.33;;;1.27;;
583;SDS011;27024;54.068;12.116;2022-07-29T10:31:10;4.90;;;1.30;;
583;SDS011;27024;54.068;12.116;2022-07-29T10:33:54;3.05;;;1.15;;
583;SDS011;27024;54.068;12.116;2022-07-29T10:39:28;3.65;;;1.55;;
583;SDS011;27024;54.068;12.116;2022-07-29T10:42:20;4.18;;;1.50;;
583;SDS011;27024;54.068;12.116;2022-07-29T10:44:59;5.40;;;1.20;;
583;SDS011;27024;54.068;12.116;2022-07-29T10:47:26;7.00;;;1.40;;
583;SDS011;27024;54.068;12.116;2022-07-29T10:50:00;4.50;;;1.60;;
583;SDS011;27024;54.068;12.116;2022-07-29T10:55:38;3.63;;;1.02;;
583;SDS011;27024;54.068;12.116;2022-07-29T10:58:14;4.93;;;1.88;;
583;SDS011;27024;54.068;12.116;2022-07-29T11:00:47;3.60;;;1.17;;
583;SDS011;27024;54.068;12.116;2022-07-29T11:06:19;2.67;;;1.00;;
583;SDS011;27024;54.068;12.116;2022-07-29T11:11:45;4.78;;;1.55;;
583;SDS011;27024;54.068;12.116;2022-07-29T11:17:29;3.95;;;1.10;;
583;SDS011;27024;54.068;12.116;2022-07-29T11:28:48;4.97;;;1.70;;
583;SDS011;27024;54.068;12.116;2022-07-29T11:31:16;4.30;;;1.48;;
583;SDS011;27024;54.068;12.116;2022-07-29T11:39:33;5.18;;;1.30;;
583;SDS011;27024;54.068;12.116;2022-07-29T11:47:54;3.38;;;1.13;;
583;SDS011;27024;54.068;12.116;2022-07-29T11:50:44;3.75;;;1.40;;
583;SDS011;27024;54.068;12.116;2022-07-29T11:53:14;6.32;;;1.60;;
583;SDS011;27024;54.068;12.116;2022-07-29T11:55:41;4.78;;;1.35;;
583;SDS011;27024;54.068;12.116;2022-07-29T11:58:21;3.88;;;1.50;;
583;SDS011;27024;54.068;12.116;2022-07-29T12:00:51;5.93;;;1.63;;
583;SDS011;27024;54.068;12.116;2022-07-29T12:03:25;5.72;;;1.60;;
583;SDS011;27024;54.068;12.116;2022-07-29T12:06:00;5.40;;;1.10;;
583;SDS011;27024;54.068;12.116;2022-07-29T12:08:27;4.95;;;1.20;;
583;SDS011;27024;54.068;12.116;2022-07-29T12:10:55;6.13;;;1.65;;
583;SDS011;27024;54.068;12.116;2022-07-29T12:13:22;4.57;;;1.67;;
583;SDS011;27024;54.068;12.116;2022-07-29T12:16:03;3.63;;;1.15;;
583;SDS011;27024;54.068;12.116;2022-07-29T12:18:31;6.35;;;1.30;;
583;SDS011;27024;54.068;12.116;2022-07-29T12:20:58;5.75;;;1.40;;
583;SDS011;27024;54.068;12.116;2022-07-29T12:23:33;5.28;;;1.52;;
583;SDS011;27024;54.068;12.116;2022-07-29T12:28:37;5.55;;;1.23;;
583;SDS011;27024;54.068;12.116;2022-07-29T12:31:05;4.00;;;1.40;;
583;SDS011;27024;54.068;12.116;2022-07-29T12:33:34;5.43;;;1.95;;
583;SDS011;27024;54.068;12.116;2022-07-29T12:36:01;5.95;;;1.10;;
583;SDS011;27024;54.068;12.116;2022-07-29T12:38:37;5.57;;;1.38;;
583;SDS011;27024;54.068;12.116;2022-07-29T12:41:07;4.28;;;1.50;;
583;SDS011;27024;54.068;12.116;2022-07-29T12:43:34;5.68;;;1.27;;
583;SDS011;27024;54.068;12.116;2022-07-29T12:46:11;3.63;;;1.27;;
583;SDS011;27024;54.068;12.116;2022-07-29T12:48:41;5.43;;;1.30;;
583;SDS011;27024;54.068;12.116;2022-07-29T12:51:09;4.05;;;1.40;;
583;SDS011;27024;54.068;12.116;2022-07-29T12:53:38;5.85;;;1.20;;
583;SDS011;27024;54.068;12.116;2022-07-29T12:56:05;4.60;;;1.17;;
583;SDS011;27024;54.068;12.116;2022-07-29T12:59:10;7.07;;;1.60;;
583;SDS011;27024;54.068;12.116;2022-07-29T13:01:49;3.47;;;1.20;;
583;SDS011;27024;54.068;12.116;2022-07-29T13:04:28;4.82;;;1.15;;
583;SDS011;27024;54.068;12.116;2022-07-29T13:13:03;5.05;;;1.15;;
583;SDS011;27024;54.068;12.116;2022-07-29T13:15:45;2.65;;;1.00;;
583;SDS011;27024;54.068;12.116;2022-07-29T13:18:28;5.18;;;1.00;;
583;SDS011;27024;54.068;12.116;2022-07-29T13:21:13;3.05;;;1.20;;
583;SDS011;27024;54.068;12.116;2022-07-29T13:23:44;8.75;;;1.17;;
583;SDS011;27024;54.068;12.116;2022-07-29T13:26:11;6.93;;;1.15;;
583;SDS011;27024;54.068;12.116;2022-07-29T13:28:38;3.85;;;1.20;;
583;SDS011;27024;54.068;12.116;2022-07-29T13:31:04;4.60;;;1.10;;
583;SDS011;27024;54.068;12.116;2022-07-29T13:33:31;6.80;;;1.23;;
583;SDS011;27024;54.068;12.116;2022-07-29T13:35:58;3.90;;;1.17;;
583;SDS011;27024;54.068;12.116;2022-07-29T13:38:25;2.83;;;1.10;;
583;SDS011;27024;54.068;12.116;2022-07-29T13:40:56;4.65;;;0.80;;
583;SDS011;27024;54.068;12.116;2022-07-29T13:43:24;2.88;;;1.00;;
583;SDS011;27024;54.068;12.116;2022-07-29T13:45:50;4.80;;;1.10;;
583;SDS011;27024;54.068;12.116;2022-07-29T13:48:18;5.85;;;1.20;;
583;SDS011;27024;54.068;12.116;2022-07-29T13:50:45;5.40;;;0.85;;
583;SDS011;27024;54.068;12.116;2022-07-29T13:53:12;5.28;;;1.30;;
583;SDS011;27024;54.068;12.116;2022-07-29T13:55:43;5.25;;;1.27;;
583;SDS011;27024;54.068;12.116;2022-07-29T13:58:10;3.65;;;1.08;;
583;SDS011;27024;54.068;12.116;2022-07-29T14:00:37;3.75;;;1.00;;
583;SDS011;27024;54.068;12.116;2022-07-29T14:03:04;2.70;;;0.90;;
583;SDS011;27024;54.068;12.116;2022-07-29T14:05:32;3.50;;;1.50;;
583;SDS011;27024;54.068;12.116;2022-07-29T14:07:59;5.13;;;1.30;;
583;SDS011;27024;54.068;12.116;2022-07-29T14:10:26;5.30;;;1.13;;
583;SDS011;27024;54.068;12.116;2022-07-29T14:12:52;6.20;;;0.95;;
583;SDS011;27024;54.068;12.116;2022-07-29T14:15:19;6.30;;;1.13;;
583;SDS011;27024;54.068;12.116;2022-07-29T14:17:46;4.78;;;1.20;;
583;SDS011;27024;54.068;12.116;2022-07-29T14:20:13;4.63;;;1.20;;
583;SDS011;27024;54.068;12.116;2022-07-29T14:22:42;4.45;;;1.10;;
583;SDS011;27024;54.068;12.116;2022-07-29T14:25:10;6.85;;;1.45;;
583;SDS011;27024;54.068;12.116;2022-07-29T14:27:41;5.82;;;1.10;;
583;SDS011;27024;54.068;12.116;2022-07-29T14:30:09;3.60;;;1.00;;
583;SDS011;27024;54.068;12.116;2022-07-29T14:32:36;6.25;;;1.20;;
583;SDS011;27024;54.068;12.116;2022-07-29T14:35:04;7.18;;;1.17;;
583;SDS011;27024;54.068;12.116;2022-07-29T14:37:31;4.00;;;0.90;;
583;SDS011;27024;54.068;12.116;2022-07-29T14:40:06;3.30;;;0.98;;
583;SDS011;27024;54.068;12.116;2022-07-29T14:42:34;5.43;;;1.15;;
583;SDS011;27024;54.068;12.116;2022-07-29T14:45:02;6.70;;;1.10;;
583;SDS011;27024;54.068;12.116;2022-07-29T14:47:31;6.60;;;1.30;;
583;SDS011;27024;54.068;12.116;2022-07-29T14:49:57;7.18;;;1.25;;
583;SDS011;27024;54.068;12.116;2022-07-29T14:52:24;4.10;;;1.17;;
583;SDS011;27024;54.068;12.116;2022-07-29T14:54:51;4.00;;;1.00;;
583;SDS011;27024;54.068;12.116;2022-07-29T14:57:18;3.80;;;1.23;;
583;SDS011;27024;54.068;12.116;2022-07-29T14:59:46;5.80;;;1.20;;
583;SDS011;27024;54.068;12.116;2022-07-29T15:02:12;7.00;;;1.42;;
583;SDS011;27024;54.068;12.116;2022-07-29T15:04:39;7.90;;;1.30;;
583;SDS011;27024;54.068;12.116;2022-07-29T15:07:06;4.65;;;1.10;;
583;SDS011;27024;54.068;12.116;2022-07-29T15:09:34;3.72;;;1.00;;
583;SDS011;27024;54.068;12.116;2022-07-29T15:12:06;5.32;;;1.10;;
583;SDS011;27024;54.068;12.116;2022-07-29T15:14:34;5.63;;;1.58;;
583;SDS011;27024;54.068;12.116;2022-07-29T15:17:01;3.95;;;1.00;;
583;SDS011;27024;54.068;12.116;2022-07-29T15:19:29;9.80;;;1.20;;
583;SDS011;27024;54.068;12.116;2022-07-29T15:21:56;5.25;;;1.10;;
583;SDS011;27024;54.068;12.116;2022-07-29T15:24:25;5.05;;;1.13;;
583;SDS011;27024;54.068;12.116;2022-07-29T15:26:53;4.80;;;2.03;;
583;SDS011;27024;54.068;12.116;2022-07-29T15:29:20;3.63;;;1.05;;
583;SDS011;27024;54.068;12.116;2022-07-29T15:31:47;4.45;;;1.15;;
583;SDS011;27024;54.068;12.116;2022-07-29T15:34:15;3.72;;;0.80;;
583;SDS011;27024;54.068;12.116;2022-07-29T15:36:41;3.22;;;1.42;;
583;SDS011;27024;54.068;12.116;2022-07-29T15:41:46;3.90;;;0.80;;
583;SDS011;27024;54.068;12.116;2022-07-29T15:44:13;5.07;;;1.10;;
583;SDS011;27024;54.068;12.116;2022-07-29T15:46:40;7.07;;;1.13;;
583;SDS011;27024;54.068;12.116;2022-07-29T15:49:27;4.25;;;1.05;;
583;SDS011;27024;54.068;12.116;2022-07-29T15:52:15;3.42;;;1.25;;
583;SDS011;27024;54.068;12.116;2022-07-29T15:54:52;3.90;;;0.95;;
583;SDS011;27024;54.068;12.116;2022-07-29T15:57:20;4.75;;;1.50;;
583;SDS011;27024;54.068;12.116;2022-07-29T15:59:48;7.00;;;1.10;;
583;SDS011;27024;54.068;12.116;2022-07-29T16:02:15;2.80;;;1.05;;
583;SDS011;27024;54.068;12.116;2022-07-29T16:04:42;5.80;;;1.63;;
583;SDS011;27024;54.068;12.116;2022-07-29T16:07:09;5.80;;;1.00;;
583;SDS011;27024;54.068;12.116;2022-07-29T16:09:37;2.58;;;1.00;;
583;SDS011;27024;54.068;12.116;2022-07-29T16:12:03;6.20;;;1.30;;
583;SDS011;27024;54.068;12.116;2022-07-29T16:14:42;4.72;;;1.20;;
583;SDS011;27024;54.068;12.116;2022-07-29T16:17:09;2.38;;;1.48;;
583;SDS011;27024;54.068;12.116;2022-07-29T16:19:41;3.70;;;1.17;;
583;SDS011;27024;54.068;12.116;2022-07-29T16:22:08;4.85;;;1.05;;
583;SDS011;27024;54.068;12.116;2022-07-29T16:24:36;3.25;;;1.20;;
583;SDS011;27024;54.068;12.116;2022-07-29T16:27:04;3.70;;;1.30;;